Impacts TAF Board
For situational awareness. Not to be used for flight planning purposes.
IDs:

KSEA - Seattle-Tacoma Intl, WA, US

Issued at 2322 UTC 19 Jan 2022
Updated at 0124 UTC 20 Jan 2022
Potential Impact None Slight Moderate High
Time0053Z 20/02Z 20/03Z 20/04Z 20/05Z 20/06Z 20/07Z 20/08Z 20/09Z 20/10Z 20/11Z 20/12Z 20/13Z 20/14Z>>
Type OBS PRVL
  [TEMP]  
PRVL
  [TEMP]  
PRVL
  [TEMP]  
PRVL
  [TEMP]  
PRVL
  [TEMP]  
PRVL
  [TEMP]  
PRVL
  [TEMP]  
PRVL
  [TEMP]  
PRVL PRVL PRVL PRVL PRVL
VIS 10 >6 >6 >6 >6 >6
  [5]  
>6
  [5]  
>6
  [5]  
>6
  [5]  
>6 >6 >6 >6 >6
CIG 22 30
  [15]  
30
  [15]  
30
  [15]  
30
  [15]  
15
  [10]  
15
  [10]  
15
  [10]  
15
  [10]  
15 15 15 15 15
Cover OVC OVC
  [OVC]  
OVC
  [OVC]  
OVC
  [OVC]  
OVC
  [OVC]  
OVC
  [OVC]  
OVC
  [OVC]  
OVC
  [OVC]  
OVC
  [OVC]  
OVC OVC OVC OVC OVC
FltCat MVFR MVFR
  [MVFR]  
MVFR
  [MVFR]  
MVFR
  [MVFR]  
MVFR
  [MVFR]  
MVFR
  [MVFR]  
MVFR
  [MVFR]  
MVFR
  [MVFR]  
MVFR
  [MVFR]  
MVFR MVFR MVFR MVFR MVFR
WX -- --
  [-RA]  
--
  [-RA]  
--
  [-RA]  
--
  [-RA]  
-RA
  [BR]  
-RA
  [BR]  
-RA
  [BR]  
-RA
  [BR]  
-RA -RA -RA -RA -RA
WDir VRB 150
[150]
150
[150]
150
[150]
150
[150]
180
[180]
180
[180]
180
[180]
180
[180]
180 180 180 180 180
WSpd 0 8
  [8]  
8
  [8]  
8
  [8]  
8
  [8]  
10
  [10]  
10
  [10]  
10
  [10]  
10
  [10]  
10 10 10 10 10
WGst -- --
  [--]  
--
  [--]  
--
  [--]  
--
  [--]  
--
  [--]  
--
  [--]  
--
  [--]  
--
  [--]  
-- -- -- -- --
WSHgt -- --
[--]
--
[--]
--
[--]
--
[--]
--
[--]
--
[--]
--
[--]
--
[--]
-- -- -- -- --
WSDir -- --
[--]
--
[--]
--
[--]
--
[--]
--
[--]
--
[--]
--
[--]
--
[--]
-- -- -- -- --
WSSpd -- --
[--]
--
[--]
--
[--]
--
[--]
--
[--]
--
[--]
--
[--]
--
[--]
-- -- -- -- --
Raw TAF
KSEA 192322Z 2000/2106 15008KT P6SM SCT015 OVC030
  TEMPO 2002/2006 -RA OVC015
  FM200600 18010KT P6SM -RA OVC015
  TEMPO 2006/2010 5SM BR OVC010
  FM201800 22013G22KT P6SM OVC015


Raw METAR
KSEA 200053Z 00000KT 10SM OVC022 09/06 A3026 RMK AO2 SLP254 T00890056
KSEA 192353Z 14003KT 10SM OVC027 10/04 A3026 RMK AO2 SLP255 T01000044 10100 20067 56008
KSEA 192311Z 00000KT 10SM FEW012 OVC027 10/06 A3027 RMK AO2 T01000056
KSEA 192253Z 00000KT 10SM FEW015 OVC030 09/06 A3027 RMK AO2 SLP257 T00940056

METAR Board
Radar Display
Forecast Discussion
For situational awareness. Not to be used for flight planning purposes.